createdAt,value
2022-08-16T00:00:03.222Z,8.35
2022-08-16T00:02:54.902Z,7.70
2022-08-16T00:05:48.036Z,8.23
2022-08-16T00:08:36.925Z,8.40
2022-08-16T00:11:22.767Z,8.07
2022-08-16T00:14:13.516Z,7.97
2022-08-16T00:17:11.419Z,8.73
2022-08-16T00:20:08.888Z,8.55
2022-08-16T00:22:57.892Z,8.35
2022-08-16T00:26:33.593Z,8.85
2022-08-16T00:28:48.969Z,8.35
2022-08-16T00:31:59.381Z,8.43
2022-08-16T00:34:52.966Z,8.23
2022-08-16T00:37:57.983Z,8.60
2022-08-16T00:40:53.713Z,9.20
2022-08-16T00:43:42.698Z,9.60
2022-08-16T00:47:02.282Z,8.52
2022-08-16T00:49:46.198Z,8.48
2022-08-16T00:52:50.243Z,8.73
2022-08-16T00:55:40.050Z,8.35
2022-08-16T00:58:34.560Z,9.45
2022-08-16T01:01:20.980Z,8.77
2022-08-16T01:04:30.104Z,8.55
2022-08-16T01:07:17.741Z,9.23
2022-08-16T01:10:04.733Z,8.55
2022-08-16T01:13:26.616Z,8.20
2022-08-16T01:16:31.221Z,9.20
2022-08-16T01:19:22.995Z,8.88
2022-08-16T01:22:57.598Z,8.82
2022-08-16T01:25:44.335Z,8.93
2022-08-16T01:28:32.335Z,8.25
2022-08-16T01:31:22.389Z,8.55
2022-08-16T01:34:24.846Z,8.35
2022-08-16T01:37:13.251Z,8.38
2022-08-16T01:40:06.854Z,8.55
2022-08-16T01:42:55.465Z,8.82
2022-08-16T01:45:43.469Z,8.82
2022-08-16T01:48:33.066Z,8.70
2022-08-16T01:51:21.716Z,8.75
2022-08-16T01:54:08.963Z,8.93
2022-08-16T01:57:03.325Z,8.93
2022-08-16T01:59:49.279Z,8.77
2022-08-16T02:02:42.527Z,9.50
2022-08-16T02:05:30.567Z,9.38
2022-08-16T02:08:33.857Z,9.63
2022-08-16T02:11:20.147Z,9.73
2022-08-16T02:14:07.165Z,8.18
2022-08-16T02:17:08.776Z,9.40
2022-08-16T02:19:58.999Z,9.02
2022-08-16T02:22:46.924Z,8.43
2022-08-16T02:25:51.221Z,8.90
2022-08-16T02:28:38.918Z,9.02
2022-08-16T02:32:04.370Z,8.85
2022-08-16T02:34:40.871Z,9.00
2022-08-16T02:37:51.278Z,8.88
2022-08-16T02:40:33.805Z,9.32
2022-08-16T02:43:20.122Z,9.20
2022-08-16T02:46:13.214Z,9.82
2022-08-16T02:49:01.986Z,9.98
2022-08-16T02:51:48.742Z,9.48
2022-08-16T02:54:36.814Z,9.73
2022-08-16T02:57:23.209Z,9.27
2022-08-16T03:00:31.886Z,9.45
2022-08-16T03:03:18.186Z,9.32
2022-08-16T03:06:03.897Z,8.70
2022-08-16T03:09:14.960Z,9.23
2022-08-16T03:12:06.674Z,10.18
2022-08-16T03:14:52.671Z,8.93
2022-08-16T03:17:53.397Z,10.00
2022-08-16T03:20:40.683Z,9.65
2022-08-16T03:23:28.235Z,9.38
2022-08-16T03:26:21.873Z,9.60
2022-08-16T03:29:12.086Z,9.00
2022-08-16T03:31:59.686Z,9.38
2022-08-16T03:34:49.797Z,8.63
2022-08-16T03:38:01.911Z,7.88
2022-08-16T03:40:47.380Z,8.60
2022-08-16T03:43:51.897Z,8.23
2022-08-16T03:46:47.337Z,8.45
2022-08-16T03:49:39.391Z,7.90
2022-08-16T03:52:31.317Z,7.40
2022-08-16T03:55:18.710Z,7.80
2022-08-16T03:58:05.580Z,7.60
2022-08-16T04:00:51.630Z,8.23
2022-08-16T04:03:45.644Z,8.82
2022-08-16T04:06:31.531Z,9.20
2022-08-16T04:09:17.437Z,9.77
2022-08-16T04:12:10.828Z,9.20
2022-08-16T04:14:58.680Z,10.13
2022-08-16T04:17:46.015Z,8.88
2022-08-16T04:20:36.934Z,9.10
2022-08-16T04:23:25.187Z,8.95
2022-08-16T04:26:16.606Z,9.40
2022-08-16T04:29:16.762Z,9.18
2022-08-16T04:32:09.315Z,9.20
2022-08-16T04:34:56.957Z,10.07
2022-08-16T04:37:43.866Z,9.73
2022-08-16T04:40:35.757Z,10.05
2022-08-16T04:43:23.659Z,10.82
2022-08-16T04:46:26.548Z,10.27
2022-08-16T04:49:15.308Z,10.02
2022-08-16T04:52:01.850Z,9.75
2022-08-16T04:54:47.871Z,9.52
2022-08-16T04:57:36.876Z,9.10
2022-08-16T05:00:31.773Z,9.27
2022-08-16T05:03:41.986Z,9.30
2022-08-16T05:06:46.175Z,9.70
2022-08-16T05:09:49.092Z,9.45
2022-08-16T05:12:35.948Z,9.32
2022-08-16T05:15:23.014Z,8.95
2022-08-16T05:18:10.112Z,10.07
2022-08-16T05:21:09.625Z,9.43
2022-08-16T05:24:01.803Z,8.75
2022-08-16T05:26:49.778Z,9.07
2022-08-16T05:30:00.707Z,10.20
2022-08-16T05:32:47.457Z,9.45
2022-08-16T05:35:34.601Z,9.10
2022-08-16T05:38:32.791Z,9.30
2022-08-16T05:41:26.934Z,9.48
2022-08-16T05:44:23.078Z,9.63
2022-08-16T05:47:10.584Z,8.88
2022-08-16T05:50:01.571Z,8.73
2022-08-16T05:52:49.899Z,9.18
2022-08-16T05:55:40.903Z,8.60
2022-08-16T05:58:32.732Z,11.02
2022-08-16T06:01:19.168Z,9.48
2022-08-16T06:04:12.961Z,7.68
2022-08-16T06:07:08.250Z,9.52
2022-08-16T06:09:59.651Z,8.85
2022-08-16T06:12:46.267Z,9.70
2022-08-16T06:15:41.468Z,9.48
2022-08-16T06:18:27.915Z,8.20
2022-08-16T06:21:14.805Z,8.90
2022-08-16T06:24:53.491Z,8.48
2022-08-16T06:27:17.596Z,8.10
2022-08-16T06:30:04.040Z,8.60
2022-08-16T06:32:50.870Z,8.20
2022-08-16T06:35:40.447Z,8.60
2022-08-16T06:38:32.978Z,7.45
2022-08-16T06:41:21.478Z,8.35
2022-08-16T06:44:08.358Z,7.40
2022-08-16T06:47:06.911Z,7.70
2022-08-16T06:49:54.460Z,8.00
2022-08-16T06:52:58.095Z,7.22
2022-08-16T06:55:58.341Z,7.57
2022-08-16T06:58:48.398Z,7.72
2022-08-16T07:01:44.772Z,7.00
2022-08-16T07:04:37.319Z,6.35
2022-08-16T07:07:36.328Z,7.28
2022-08-16T07:10:25.765Z,7.20
2022-08-16T07:13:19.767Z,6.18
2022-08-16T07:16:20.534Z,6.30
2022-08-16T07:19:06.610Z,6.20
2022-08-16T07:21:59.651Z,5.65
2022-08-16T07:24:46.513Z,5.80
2022-08-16T07:27:33.674Z,6.05
2022-08-16T07:30:39.906Z,5.75
2022-08-16T07:33:51.725Z,5.85
2022-08-16T07:36:41.733Z,5.68
2022-08-16T07:39:34.020Z,5.50
2022-08-16T07:42:28.258Z,5.88
2022-08-16T07:45:14.151Z,5.60
2022-08-16T07:48:11.212Z,5.80
2022-08-16T07:51:02.505Z,5.15
2022-08-16T07:54:02.637Z,5.55
2022-08-16T07:56:55.665Z,5.20
2022-08-16T07:59:46.188Z,5.15
2022-08-16T08:02:34.439Z,5.65
2022-08-16T08:05:25.516Z,5.25
2022-08-16T08:08:50.191Z,4.80
2022-08-16T08:11:29.276Z,5.28
2022-08-16T08:14:30.068Z,4.78
2022-08-16T08:17:18.469Z,5.28
2022-08-16T08:20:05.204Z,5.18
2022-08-16T08:22:51.389Z,4.88
2022-08-16T08:25:53.808Z,5.35
2022-08-16T08:28:41.825Z,5.05
2022-08-16T08:31:27.279Z,5.50
2022-08-16T08:34:13.660Z,5.30
2022-08-16T08:37:05.447Z,5.45
2022-08-16T08:39:55.642Z,5.70
2022-08-16T08:42:49.642Z,5.80
2022-08-16T08:45:52.724Z,4.85
2022-08-16T08:48:40.217Z,5.40
2022-08-16T08:51:36.897Z,5.28
2022-08-16T08:54:26.192Z,5.03
2022-08-16T08:57:16.313Z,5.40
2022-08-16T09:00:17.670Z,5.45
2022-08-16T09:03:07.929Z,4.85
2022-08-16T09:05:59.009Z,5.53
2022-08-16T09:08:47.769Z,5.57
2022-08-16T09:11:40.961Z,5.18
2022-08-16T09:14:29.573Z,5.43
2022-08-16T09:17:38.209Z,5.57
2022-08-16T09:20:20.430Z,4.97
2022-08-16T09:23:08.885Z,5.35
2022-08-16T09:26:03.588Z,5.18
2022-08-16T09:29:17.013Z,5.80
2022-08-16T09:32:10.039Z,5.45
2022-08-16T09:34:58.140Z,5.55
2022-08-16T09:37:43.761Z,5.35
2022-08-16T09:40:47.142Z,5.00
2022-08-16T09:43:58.570Z,5.43
2022-08-16T09:46:48.487Z,5.60
2022-08-16T09:49:36.876Z,6.07
2022-08-16T09:52:22.962Z,6.00
2022-08-16T09:55:12.464Z,5.63
2022-08-16T09:57:59.847Z,4.93
2022-08-16T10:00:45.772Z,5.90
2022-08-16T10:03:31.189Z,5.78
2022-08-16T10:06:17.261Z,5.85
2022-08-16T10:09:06.874Z,5.20
2022-08-16T10:12:17.899Z,5.50
2022-08-16T10:15:08.775Z,5.18
2022-08-16T10:19:00.509Z,5.45
2022-08-16T10:21:13.871Z,5.70
2022-08-16T10:23:59.867Z,5.82
2022-08-16T10:27:18.201Z,5.13
2022-08-16T10:30:00.028Z,4.95
2022-08-16T10:32:47.678Z,5.70
2022-08-16T10:35:33.302Z,5.10
2022-08-16T10:38:27.323Z,5.07
2022-08-16T10:41:15.869Z,4.60
2022-08-16T10:44:02.110Z,5.07
2022-08-16T10:46:47.385Z,4.72
2022-08-16T10:49:32.975Z,4.70
2022-08-16T10:52:19.557Z,4.60
2022-08-16T10:58:16.980Z,4.82
2022-08-16T11:20:40.743Z,4.93
2022-08-16T11:22:51.742Z,4.60
2022-08-16T11:31:54.133Z,5.25
2022-08-16T11:35:05.879Z,4.97
2022-08-16T11:40:57.362Z,4.75
2022-08-16T11:43:43.747Z,4.50
2022-08-16T11:46:44.771Z,4.88
2022-08-16T11:49:31.906Z,4.38
2022-08-16T11:52:18.127Z,4.40
2022-08-16T11:55:10.812Z,4.93
2022-08-16T11:57:57.453Z,5.15
2022-08-16T12:00:51.817Z,4.78
2022-08-16T12:03:38.815Z,4.50
2022-08-16T12:06:30.920Z,4.68
2022-08-16T12:09:19.731Z,4.03
2022-08-16T12:12:06.072Z,4.65
2022-08-16T12:14:59.790Z,4.22
2022-08-16T12:17:46.123Z,4.53
2022-08-16T12:20:34.573Z,4.80
2022-08-16T12:23:20.655Z,4.30
2022-08-16T12:26:10.548Z,4.28
2022-08-16T12:28:56.666Z,4.82
2022-08-16T12:32:01.028Z,4.18
2022-08-16T12:34:52.733Z,4.28
2022-08-16T12:37:39.080Z,4.70
2022-08-16T12:40:33.924Z,4.10
2022-08-16T12:43:23.579Z,4.50
2022-08-16T12:46:11.523Z,4.15
2022-08-16T12:48:59.983Z,4.13
2022-08-16T12:51:59.383Z,4.28
2022-08-16T12:54:46.004Z,4.38
2022-08-16T12:57:40.878Z,4.30
2022-08-16T13:00:33.008Z,3.97
2022-08-16T13:03:21.480Z,4.40
2022-08-16T13:06:07.429Z,3.95
2022-08-16T13:08:54.629Z,4.05
2022-08-16T13:11:55.014Z,3.65
2022-08-16T13:14:45.076Z,3.58
2022-08-16T13:17:30.318Z,3.92
2022-08-16T13:20:23.089Z,4.03
2022-08-16T13:23:11.438Z,4.20
2022-08-16T13:25:57.453Z,4.03
2022-08-16T13:28:46.102Z,3.60
2022-08-16T13:31:31.780Z,3.90
2022-08-16T13:34:18.431Z,3.83
2022-08-16T13:37:03.979Z,3.38
2022-08-16T13:39:49.586Z,3.83
2022-08-16T13:42:35.371Z,3.13
2022-08-16T13:45:28.037Z,3.47
2022-08-16T13:48:24.396Z,3.30
2022-08-16T13:51:15.824Z,3.50
2022-08-16T13:54:03.805Z,3.60
2022-08-16T13:56:49.879Z,3.63
2022-08-16T13:59:35.516Z,3.63
2022-08-16T14:02:23.623Z,3.67
2022-08-16T14:05:09.765Z,3.50
2022-08-16T14:07:56.524Z,3.67
2022-08-16T14:10:43.528Z,3.60
2022-08-16T14:13:28.867Z,4.10
2022-08-16T14:16:24.589Z,3.70
2022-08-16T14:19:22.463Z,3.53
2022-08-16T14:22:15.188Z,3.95
2022-08-16T14:25:07.450Z,3.67
2022-08-16T14:27:55.898Z,3.45
2022-08-16T14:30:41.728Z,3.33
2022-08-16T14:33:27.251Z,3.33
2022-08-16T14:36:18.764Z,3.63
2022-08-16T14:39:14.754Z,3.03
2022-08-16T14:42:10.606Z,3.15
2022-08-16T14:45:00.476Z,3.10
2022-08-16T14:47:49.908Z,3.20
2022-08-16T14:50:36.378Z,3.30
2022-08-16T14:53:23.275Z,3.10
2022-08-16T14:56:08.782Z,3.20
2022-08-16T14:59:02.823Z,2.85
2022-08-16T15:01:57.592Z,2.90
2022-08-16T15:04:48.485Z,2.60
2022-08-16T15:07:35.453Z,2.50
2022-08-16T15:10:24.349Z,2.90
2022-08-16T15:13:12.306Z,2.78
2022-08-16T15:16:02.567Z,3.38
2022-08-16T15:18:48.922Z,2.92
2022-08-16T15:21:35.646Z,2.72
2022-08-16T15:24:22.319Z,3.05
2022-08-16T15:27:08.083Z,3.10
2022-08-16T15:29:57.059Z,2.90
2022-08-16T15:32:42.648Z,3.20
2022-08-16T15:35:31.627Z,3.17
2022-08-16T15:38:55.323Z,3.35
2022-08-16T15:41:52.019Z,3.33
2022-08-16T15:44:51.929Z,3.00
2022-08-16T15:47:39.608Z,3.25
2022-08-16T15:50:25.224Z,3.42
2022-08-16T15:53:15.676Z,3.33
2022-08-16T15:56:01.285Z,2.83
2022-08-16T15:58:51.567Z,3.10
2022-08-16T16:01:41.417Z,3.65
2022-08-16T16:04:28.516Z,3.17
2022-08-16T16:07:14.254Z,3.42
2022-08-16T16:10:01.785Z,3.33
2022-08-16T16:12:53.257Z,3.15
2022-08-16T16:15:47.815Z,3.13
2022-08-16T16:18:34.401Z,3.45
2022-08-16T16:21:20.868Z,3.20
2022-08-16T16:24:23.982Z,3.00
2022-08-16T16:27:12.103Z,3.33
2022-08-16T16:30:01.614Z,3.50
2022-08-16T16:32:47.347Z,3.40
2022-08-16T16:35:34.904Z,3.10
2022-08-16T16:38:20.439Z,3.67
2022-08-16T16:41:09.401Z,3.38
2022-08-16T16:43:56.394Z,3.75
2022-08-16T16:46:43.771Z,3.72
2022-08-16T16:49:29.398Z,3.85
2022-08-16T16:52:44.351Z,3.45
2022-08-16T16:55:23.493Z,3.58
2022-08-16T16:58:36.438Z,4.10
2022-08-16T17:01:35.099Z,3.47
2022-08-16T17:04:31.750Z,4.10
2022-08-16T17:07:20.587Z,3.90
2022-08-16T17:10:10.526Z,4.00
2022-08-16T17:12:56.686Z,4.57
2022-08-16T17:15:43.314Z,4.32
2022-08-16T17:19:15.349Z,4.50
2022-08-16T17:21:40.267Z,4.35
2022-08-16T17:24:39.264Z,4.25
2022-08-16T17:27:33.232Z,4.65
2022-08-16T17:30:22.452Z,3.97
2022-08-16T17:33:20.090Z,4.32
2022-08-16T17:36:08.769Z,4.32
2022-08-16T17:38:55.720Z,3.88
2022-08-16T17:41:42.216Z,4.18
2022-08-16T17:44:27.661Z,4.40
2022-08-16T17:47:13.017Z,4.82
2022-08-16T17:49:58.763Z,4.55
2022-08-16T17:52:49.949Z,4.20
2022-08-16T17:55:38.667Z,4.03
2022-08-16T17:58:24.749Z,4.32
2022-08-16T18:01:10.719Z,4.60
2022-08-16T18:04:07.445Z,4.75
2022-08-16T18:06:55.579Z,4.55
2022-08-16T18:09:42.064Z,4.63
2022-08-16T18:12:51.180Z,5.10
2022-08-16T18:15:36.182Z,4.70
2022-08-16T18:18:21.614Z,5.05
2022-08-16T18:21:25.662Z,6.80
2022-08-16T18:24:12.244Z,7.45
2022-08-16T18:27:24.950Z,4.90
2022-08-16T18:30:04.167Z,5.18
2022-08-16T18:32:50.851Z,5.70
2022-08-16T18:35:36.844Z,5.75
2022-08-16T18:38:22.591Z,4.35
2022-08-16T18:41:08.117Z,6.35
2022-08-16T18:44:25.296Z,5.47
2022-08-16T18:47:00.850Z,6.10
2022-08-16T18:49:46.195Z,4.93
2022-08-16T18:52:31.586Z,6.53
2022-08-16T18:55:17.318Z,8.27
2022-08-16T18:58:05.156Z,5.85
2022-08-16T19:00:56.389Z,6.05
2022-08-16T19:03:43.070Z,5.03
2022-08-16T19:06:28.226Z,4.43
2022-08-16T19:09:13.767Z,4.30
2022-08-16T19:12:04.495Z,4.38
2022-08-16T19:14:50.172Z,4.65
2022-08-16T19:17:36.685Z,5.13
2022-08-16T19:20:25.124Z,4.70
2022-08-16T19:23:13.467Z,5.20
2022-08-16T19:26:25.595Z,5.78
2022-08-16T19:29:11.803Z,4.90
2022-08-16T19:31:59.104Z,5.32
2022-08-16T19:34:44.484Z,5.28
2022-08-16T19:37:29.837Z,5.63
2022-08-16T19:40:36.046Z,5.95
2022-08-16T19:43:21.985Z,5.43
2022-08-16T19:46:07.687Z,5.13
2022-08-16T19:48:53.017Z,5.22
2022-08-16T19:51:38.461Z,4.95
2022-08-16T19:54:23.805Z,5.20
2022-08-16T19:57:09.989Z,4.88
2022-08-16T19:59:55.139Z,5.22
2022-08-16T20:02:52.305Z,7.38
2022-08-16T20:05:37.762Z,6.03
2022-08-16T20:08:23.321Z,5.95
2022-08-16T20:11:08.899Z,4.80
2022-08-16T20:13:54.308Z,5.10
2022-08-16T20:16:40.680Z,6.03
2022-08-16T20:19:28.422Z,5.25
2022-08-16T20:22:35.621Z,5.20
2022-08-16T20:25:30.806Z,5.45
2022-08-16T20:28:40.677Z,5.32
2022-08-16T20:31:25.325Z,5.38
2022-08-16T20:34:11.043Z,4.80
2022-08-16T20:36:56.527Z,5.30
2022-08-16T20:39:53.685Z,5.60
2022-08-16T20:43:07.372Z,5.13
2022-08-16T20:45:52.850Z,5.15
2022-08-16T20:48:38.815Z,5.00
2022-08-16T20:51:24.703Z,5.45
2022-08-16T20:54:10.212Z,4.82
2022-08-16T20:57:00.494Z,5.35
2022-08-16T20:59:50.009Z,5.30
2022-08-16T21:02:35.514Z,5.30
2022-08-16T21:05:27.884Z,5.35
2022-08-16T21:08:51.451Z,5.65
2022-08-16T21:11:23.572Z,5.40
2022-08-16T21:14:11.669Z,5.47
2022-08-16T21:16:57.104Z,5.28
2022-08-16T21:19:42.921Z,6.10
2022-08-16T21:22:28.840Z,6.10
2022-08-16T21:25:14.760Z,6.25
2022-08-16T21:28:40.966Z,5.53
2022-08-16T21:31:06.562Z,5.90
2022-08-16T21:33:54.911Z,6.50
2022-08-16T21:36:40.791Z,5.35
2022-08-16T21:39:26.432Z,5.50
2022-08-16T21:42:13.876Z,5.80
2022-08-16T21:44:59.115Z,6.32
2022-08-16T21:47:44.991Z,5.88
2022-08-16T21:50:30.818Z,5.53
2022-08-16T21:53:18.551Z,5.38
2022-08-16T21:56:04.628Z,5.47
2022-08-16T21:58:52.926Z,5.55
2022-08-16T22:01:41.344Z,5.82
2022-08-16T22:04:36.953Z,5.07
2022-08-16T22:07:23.959Z,5.22
2022-08-16T22:11:04.726Z,6.25
2022-08-16T22:13:19.082Z,6.05
2022-08-16T22:16:04.971Z,6.43
2022-08-16T22:18:52.267Z,5.57
2022-08-16T22:21:38.438Z,5.57
2022-08-16T22:24:23.849Z,5.85
2022-08-16T22:27:09.528Z,6.60
2022-08-16T22:29:58.233Z,5.88
2022-08-16T22:32:44.501Z,6.15
2022-08-16T22:35:30.128Z,5.80
2022-08-16T22:38:54.069Z,6.28
2022-08-16T22:41:22.162Z,5.78
2022-08-16T22:44:08.111Z,5.80
2022-08-16T22:46:54.042Z,5.88
2022-08-16T22:49:39.274Z,5.78
2022-08-16T22:52:55.540Z,5.38
2022-08-16T22:55:31.442Z,5.78
2022-08-16T22:58:16.809Z,5.75
2022-08-16T23:01:02.289Z,5.80
2022-08-16T23:03:48.587Z,5.68
2022-08-16T23:06:34.100Z,5.95
2022-08-16T23:09:20.063Z,5.70
2022-08-16T23:12:07.477Z,6.25
2022-08-16T23:14:54.286Z,6.15
2022-08-16T23:17:40.156Z,6.45
2022-08-16T23:20:28.093Z,6.28
2022-08-16T23:23:20.780Z,5.82
2022-08-16T23:26:44.394Z,6.30
2022-08-16T23:29:24.802Z,6.53
2022-08-16T23:32:12.031Z,6.15
2022-08-16T23:34:58.384Z,6.05
2022-08-16T23:37:44.366Z,6.03
2022-08-16T23:40:30.463Z,6.10
2022-08-16T23:43:19.624Z,5.95
2022-08-16T23:46:06.823Z,6.35
2022-08-16T23:49:57.984Z,6.68
2022-08-16T23:52:00.406Z,6.55
2022-08-16T23:54:46.618Z,6.85
2022-08-16T23:57:33.100Z,7.50
